createdAt,value
2022-12-08T00:01:29.720Z,24.43
2022-12-08T00:03:59.481Z,24.97
2022-12-08T00:06:45.600Z,30.97
2022-12-08T00:09:24.469Z,26.53
2022-12-08T00:11:53.245Z,25.57
2022-12-08T00:14:27.986Z,25.07
2022-12-08T00:16:57.634Z,25.40
2022-12-08T00:19:26.663Z,27.13
2022-12-08T00:21:54.600Z,25.83
2022-12-08T00:24:22.644Z,26.50
2022-12-08T00:26:50.345Z,27.40
2022-12-08T00:29:18.770Z,26.90
2022-12-08T00:31:48.409Z,27.17
2022-12-08T00:34:16.868Z,30.30
2022-12-08T00:36:44.948Z,33.10
2022-12-08T00:39:13.742Z,34.03
2022-12-08T00:42:00.564Z,30.70
2022-12-08T00:44:28.456Z,35.03
2022-12-08T00:46:57.856Z,29.20
2022-12-08T00:49:25.649Z,31.87
2022-12-08T00:51:53.763Z,31.73
2022-12-08T00:54:23.676Z,33.00
2022-12-08T00:56:51.876Z,30.20
2022-12-08T00:59:20.048Z,27.93
2022-12-08T01:01:48.388Z,28.53
2022-12-08T01:04:18.245Z,26.90
2022-12-08T01:06:46.127Z,28.30
2022-12-08T01:09:14.489Z,29.83
2022-12-08T01:11:42.419Z,28.60
2022-12-08T01:14:10.192Z,28.53
2022-12-08T01:16:38.180Z,28.53
2022-12-08T01:19:07.569Z,28.73
2022-12-08T01:21:36.711Z,32.57
2022-12-08T01:24:06.349Z,28.60
2022-12-08T01:26:34.300Z,26.07
2022-12-08T01:29:02.330Z,25.17
2022-12-08T01:31:30.213Z,27.50
2022-12-08T01:33:58.840Z,32.27
2022-12-08T01:36:27.788Z,25.60
2022-12-08T01:38:58.466Z,30.53
2022-12-08T01:41:27.618Z,27.83
2022-12-08T01:43:59.275Z,26.43
2022-12-08T01:46:28.126Z,28.70
2022-12-08T01:49:01.399Z,31.10
2022-12-08T01:51:29.431Z,34.07
2022-12-08T01:53:58.946Z,26.83
2022-12-08T01:56:30.816Z,27.43
2022-12-08T01:58:59.095Z,31.53
2022-12-08T02:01:27.396Z,28.97
2022-12-08T02:03:59.177Z,30.10
2022-12-08T02:06:29.619Z,30.43
2022-12-08T02:09:00.946Z,31.53
2022-12-08T02:11:29.352Z,31.67
2022-12-08T02:13:57.959Z,30.60
2022-12-08T02:16:34.277Z,28.40
2022-12-08T02:19:30.350Z,32.63
2022-12-08T02:21:59.414Z,31.10
2022-12-08T02:24:33.600Z,32.60
2022-12-08T02:27:15.360Z,30.03
2022-12-08T02:29:49.623Z,32.07
2022-12-08T02:32:27.653Z,34.07
2022-12-08T02:34:59.737Z,32.70
2022-12-08T02:37:29.562Z,31.10
2022-12-08T02:40:02.742Z,33.23
2022-12-08T02:42:33.869Z,33.60
2022-12-08T02:45:04.812Z,32.87
2022-12-08T02:47:34.005Z,31.20
2022-12-08T02:50:03.578Z,39.90
2022-12-08T02:52:42.076Z,32.00
2022-12-08T02:55:12.874Z,38.93
2022-12-08T02:57:46.289Z,35.30
2022-12-08T03:00:15.917Z,38.40
2022-12-08T03:02:46.703Z,32.83
2022-12-08T03:05:29.403Z,54.23
2022-12-08T03:08:02.119Z,49.77
2022-12-08T03:10:33.896Z,41.83
2022-12-08T03:13:04.535Z,32.87
2022-12-08T03:15:32.996Z,28.27
2022-12-08T03:18:01.375Z,29.97
2022-12-08T03:20:31.633Z,31.03
2022-12-08T03:23:01.799Z,27.63
2022-12-08T03:25:32.098Z,37.37
2022-12-08T03:28:00.507Z,29.17
2022-12-08T03:30:29.010Z,30.40
2022-12-08T03:32:59.148Z,31.57
2022-12-08T03:35:30.107Z,28.17
2022-12-08T03:38:05.304Z,30.63
2022-12-08T03:40:33.189Z,27.20
2022-12-08T03:43:01.523Z,27.60
2022-12-08T03:45:30.061Z,34.40
2022-12-08T03:47:57.970Z,28.20
2022-12-08T03:50:26.305Z,31.83
2022-12-08T03:52:54.053Z,31.73
2022-12-08T03:55:23.087Z,32.67
2022-12-08T03:57:51.019Z,30.43
2022-12-08T04:00:19.451Z,37.30
2022-12-08T04:02:47.104Z,35.33
2022-12-08T04:05:14.930Z,31.20
2022-12-08T04:07:43.817Z,29.13
2022-12-08T04:10:12.213Z,29.53
2022-12-08T04:12:41.922Z,29.67
2022-12-08T04:15:10.479Z,30.60
2022-12-08T04:17:38.434Z,31.33
2022-12-08T04:20:07.146Z,33.13
2022-12-08T04:22:35.348Z,27.87
2022-12-08T04:25:03.180Z,30.70
2022-12-08T04:27:31.844Z,29.73
2022-12-08T04:30:03.296Z,31.97
2022-12-08T04:32:31.439Z,33.80
2022-12-08T04:35:00.255Z,32.57
2022-12-08T04:37:29.416Z,27.07
2022-12-08T04:39:57.113Z,29.97
2022-12-08T04:42:25.267Z,31.30
2022-12-08T04:44:55.277Z,36.57
2022-12-08T04:47:24.529Z,35.70
2022-12-08T04:49:52.741Z,38.60
2022-12-08T04:52:20.713Z,39.43
2022-12-08T04:54:48.334Z,44.50
2022-12-08T04:57:16.420Z,44.97
2022-12-08T04:59:44.146Z,45.30
2022-12-08T05:02:13.611Z,35.00
2022-12-08T05:04:42.888Z,39.57
2022-12-08T05:07:10.606Z,37.83
2022-12-08T05:09:38.477Z,33.50
2022-12-08T05:12:10.025Z,32.13
2022-12-08T05:14:37.831Z,32.57
2022-12-08T05:17:09.565Z,37.90
2022-12-08T05:19:37.647Z,37.00
2022-12-08T05:22:07.075Z,37.33
2022-12-08T05:24:34.773Z,34.87
2022-12-08T05:27:02.597Z,35.80
2022-12-08T05:29:30.633Z,32.23
2022-12-08T05:31:59.856Z,33.23
2022-12-08T05:34:27.932Z,28.13
2022-12-08T05:36:57.707Z,36.50
2022-12-08T05:39:27.187Z,40.87
2022-12-08T05:41:54.953Z,37.53
2022-12-08T05:44:23.050Z,44.77
2022-12-08T05:46:50.969Z,41.07
2022-12-08T05:49:19.339Z,43.43
2022-12-08T05:51:47.666Z,37.90
2022-12-08T05:54:22.946Z,43.20
2022-12-08T05:56:52.223Z,47.47
2022-12-08T05:59:20.295Z,50.77
2022-12-08T06:01:48.122Z,46.97
2022-12-08T06:04:17.199Z,48.87
2022-12-08T06:06:44.915Z,51.23
2022-12-08T06:09:13.177Z,45.67
2022-12-08T06:11:41.521Z,53.07
2022-12-08T06:14:13.244Z,51.93
2022-12-08T06:16:41.178Z,51.23
2022-12-08T06:19:09.299Z,49.47
2022-12-08T06:21:37.108Z,50.17
2022-12-08T06:24:04.968Z,49.37
2022-12-08T06:26:33.042Z,48.90
2022-12-08T06:29:01.776Z,54.40
2022-12-08T06:31:30.981Z,50.83
2022-12-08T06:33:59.277Z,56.23
2022-12-08T06:36:28.527Z,55.13
2022-12-08T06:38:56.554Z,46.87
2022-12-08T06:41:24.724Z,46.57
2022-12-08T06:43:55.650Z,57.93
2022-12-08T06:46:23.483Z,55.20
2022-12-08T06:48:53.251Z,55.77
2022-12-08T06:51:22.899Z,53.70
2022-12-08T06:53:50.902Z,47.53
2022-12-08T06:56:20.326Z,51.50
2022-12-08T06:58:52.427Z,58.53
2022-12-08T07:01:21.081Z,48.67
2022-12-08T07:03:49.137Z,50.77
2022-12-08T07:06:20.834Z,44.53
2022-12-08T07:08:48.628Z,39.80
2022-12-08T07:11:21.138Z,40.23
2022-12-08T07:13:51.089Z,34.03
2022-12-08T07:16:19.385Z,36.23
2022-12-08T07:18:47.674Z,42.47
2022-12-08T07:21:16.397Z,45.47
2022-12-08T07:23:47.878Z,37.53
2022-12-08T07:26:18.450Z,45.10
2022-12-08T07:28:46.441Z,58.13
2022-12-08T07:31:18.394Z,44.87
2022-12-08T07:33:46.161Z,34.83
2022-12-08T07:36:14.193Z,53.60
2022-12-08T07:38:42.334Z,55.43
2022-12-08T07:41:14.692Z,53.73
2022-12-08T07:43:43.337Z,61.10
2022-12-08T07:46:12.895Z,63.40
2022-12-08T07:48:40.602Z,70.70
2022-12-08T07:51:08.556Z,63.17
2022-12-08T07:53:36.257Z,62.20
2022-12-08T07:56:06.669Z,60.90
2022-12-08T07:58:36.816Z,58.93
2022-12-08T08:01:05.140Z,55.83
2022-12-08T08:03:33.551Z,61.67
2022-12-08T08:06:04.450Z,56.33
2022-12-08T08:08:32.706Z,56.93
2022-12-08T08:11:00.443Z,53.73
2022-12-08T08:13:29.281Z,56.03
2022-12-08T08:16:03.616Z,51.87
2022-12-08T08:18:31.497Z,49.53
2022-12-08T08:21:06.712Z,51.17
2022-12-08T08:23:47.331Z,42.17
2022-12-08T08:26:15.285Z,48.93
2022-12-08T08:28:43.745Z,48.83
2022-12-08T08:31:13.385Z,46.67
2022-12-08T08:33:41.660Z,43.37
2022-12-08T08:36:09.815Z,46.10
2022-12-08T08:38:40.331Z,46.70
2022-12-08T08:41:11.986Z,41.83
2022-12-08T08:43:39.771Z,46.57
2022-12-08T08:46:09.308Z,45.13
2022-12-08T08:48:39.089Z,49.67
2022-12-08T08:51:11.317Z,40.47
2022-12-08T08:53:39.168Z,40.73
2022-12-08T08:56:09.951Z,48.13
2022-12-08T08:58:38.101Z,36.50
2022-12-08T09:01:05.916Z,43.60
2022-12-08T09:03:34.563Z,42.10
2022-12-08T09:06:06.896Z,39.60
2022-12-08T09:08:34.799Z,37.20
2022-12-08T09:11:03.474Z,36.63
2022-12-08T09:13:31.406Z,32.47
2022-12-08T09:15:59.326Z,33.33
2022-12-08T09:18:27.158Z,34.97
2022-12-08T09:20:55.559Z,45.40
2022-12-08T09:23:24.758Z,53.87
2022-12-08T09:25:52.850Z,46.27
2022-12-08T09:28:21.070Z,54.03
2022-12-08T09:30:49.068Z,44.07
2022-12-08T09:33:17.244Z,34.70
2022-12-08T09:35:45.404Z,42.10
2022-12-08T09:38:15.805Z,28.87
2022-12-08T09:40:48.256Z,27.17
2022-12-08T09:43:21.865Z,27.13
2022-12-08T09:45:53.270Z,27.20
2022-12-08T09:48:24.624Z,31.63
2022-12-08T09:50:54.443Z,33.83
2022-12-08T09:53:24.456Z,28.77
2022-12-08T09:55:55.183Z,24.83
2022-12-08T09:58:26.999Z,27.70
2022-12-08T10:00:54.741Z,28.90
2022-12-08T10:03:25.684Z,24.53
2022-12-08T10:05:56.250Z,28.70
2022-12-08T10:08:28.242Z,27.63
2022-12-08T10:10:58.760Z,28.37
2022-12-08T10:13:30.862Z,25.17
2022-12-08T10:16:03.709Z,23.33
2022-12-08T10:18:35.848Z,22.70
2022-12-08T10:21:12.873Z,23.93
2022-12-08T10:23:42.381Z,23.90
2022-12-08T10:26:13.493Z,22.63
2022-12-08T10:28:45.176Z,26.03
2022-12-08T10:31:18.171Z,18.50
2022-12-08T10:33:47.068Z,22.47
2022-12-08T10:36:15.260Z,20.73
2022-12-08T10:38:43.044Z,19.73
2022-12-08T10:41:14.795Z,16.90
2022-12-08T10:43:45.949Z,18.03
2022-12-08T10:46:18.722Z,18.10
2022-12-08T10:48:50.499Z,20.43
2022-12-08T10:51:25.559Z,28.37
2022-12-08T10:53:53.462Z,20.20
2022-12-08T10:56:25.681Z,17.93
2022-12-08T10:59:05.663Z,21.97
2022-12-08T11:01:36.436Z,19.73
2022-12-08T11:04:05.475Z,16.90
2022-12-08T11:06:35.585Z,15.93
2022-12-08T11:09:05.013Z,15.87
2022-12-08T11:11:46.505Z,16.13
2022-12-08T11:14:17.817Z,18.43
2022-12-08T11:16:46.019Z,16.43
2022-12-08T11:19:17.089Z,18.83
2022-12-08T11:21:45.379Z,20.10
2022-12-08T11:24:22.416Z,17.77
2022-12-08T11:26:53.173Z,12.30
2022-12-08T11:29:21.157Z,16.30
2022-12-08T11:31:52.208Z,15.67
2022-12-08T11:34:21.652Z,16.80
2022-12-08T11:36:51.870Z,13.30
2022-12-08T11:39:21.147Z,15.70
2022-12-08T11:41:50.566Z,18.30
2022-12-08T11:44:25.237Z,14.60
2022-12-08T11:46:56.712Z,13.70
2022-12-08T11:49:27.232Z,12.30
2022-12-08T11:51:57.661Z,13.63
2022-12-08T11:54:27.852Z,12.40
2022-12-08T11:56:56.960Z,12.83
2022-12-08T11:59:30.032Z,12.70
2022-12-08T12:01:58.772Z,14.37
2022-12-08T12:04:31.921Z,14.30
2022-12-08T12:07:23.072Z,15.63
2022-12-08T12:10:01.413Z,14.67
2022-12-08T12:12:39.720Z,14.50
2022-12-08T12:15:32.698Z,11.77
2022-12-08T12:18:03.016Z,12.83
2022-12-08T12:20:33.174Z,14.47
2022-12-08T12:23:04.957Z,12.30
2022-12-08T12:25:33.708Z,14.17
2022-12-08T12:28:03.765Z,15.60
2022-12-08T12:30:37.697Z,16.07
2022-12-08T12:33:08.779Z,14.07
2022-12-08T12:35:38.164Z,12.60
2022-12-08T12:38:28.642Z,14.13
2022-12-08T12:41:01.352Z,12.47
2022-12-08T12:43:31.566Z,14.70
2022-12-08T12:46:17.792Z,16.17
2022-12-08T12:48:47.690Z,15.50
2022-12-08T12:51:34.029Z,13.07
2022-12-08T12:54:21.900Z,14.33
2022-12-08T12:56:51.707Z,13.17
2022-12-08T12:59:38.501Z,16.33
2022-12-08T13:02:17.064Z,13.70
2022-12-08T13:04:54.181Z,12.93
2022-12-08T13:07:22.674Z,13.80
2022-12-08T13:09:56.826Z,14.97
2022-12-08T13:12:28.910Z,12.77
2022-12-08T13:15:00.973Z,10.60
2022-12-08T13:17:30.401Z,13.87
2022-12-08T13:20:00.871Z,22.37
2022-12-08T13:22:48.244Z,19.47
2022-12-08T13:25:37.020Z,19.07
2022-12-08T13:28:10.308Z,19.40
2022-12-08T13:30:46.253Z,23.67
2022-12-08T13:33:19.333Z,20.63
2022-12-08T13:35:54.818Z,18.27
2022-12-08T13:38:24.122Z,13.40
2022-12-08T13:40:54.979Z,17.27
2022-12-08T13:43:28.269Z,15.93
2022-12-08T13:55:49.837Z,14.37
2022-12-08T13:57:27.148Z,20.60
2022-12-08T13:59:55.409Z,17.10
2022-12-08T14:02:28.321Z,21.07
2022-12-08T14:07:46.128Z,25.33
2022-12-08T14:10:17.468Z,17.63
2022-12-08T14:12:47.561Z,23.93
2022-12-08T14:15:16.925Z,22.50
2022-12-08T14:17:52.311Z,23.00
2022-12-08T14:20:22.187Z,15.17
2022-12-08T14:22:53.301Z,17.20
2022-12-08T14:25:21.994Z,17.77
2022-12-08T14:27:49.971Z,18.47
2022-12-08T14:30:21.679Z,19.57
2022-12-08T14:32:50.383Z,23.93
2022-12-08T14:35:23.898Z,23.90
2022-12-08T14:37:55.452Z,22.87
2022-12-08T14:40:24.469Z,21.27
2022-12-08T14:42:53.820Z,23.83
2022-12-08T14:45:22.524Z,20.67
2022-12-08T14:47:51.541Z,21.10
2022-12-08T14:50:39.620Z,19.10
2022-12-08T14:53:14.479Z,18.77
2022-12-08T14:55:42.350Z,28.67
2022-12-08T14:58:17.485Z,21.70
2022-12-08T15:00:46.584Z,14.40
2022-12-08T15:03:14.514Z,23.23
2022-12-08T15:05:43.479Z,22.57
2022-12-08T15:08:16.572Z,24.87
2022-12-08T15:10:48.411Z,24.43
2022-12-08T15:13:23.524Z,26.27
2022-12-08T15:15:52.834Z,31.27
2022-12-08T15:18:22.322Z,25.43
2022-12-08T15:20:54.270Z,31.77
2022-12-08T15:23:26.413Z,31.13
2022-12-08T15:25:56.620Z,31.23
2022-12-08T15:28:30.019Z,25.93
2022-12-08T15:30:59.891Z,25.47
2022-12-08T15:33:28.377Z,25.53
2022-12-08T15:35:56.423Z,23.63
2022-12-08T15:38:26.824Z,27.33
2022-12-08T15:40:55.132Z,25.10
2022-12-08T15:43:23.832Z,26.63
2022-12-08T15:45:59.222Z,21.90
2022-12-08T15:48:29.047Z,19.47
2022-12-08T15:50:57.356Z,18.50
2022-12-08T15:53:26.628Z,14.10
2022-12-08T15:56:26.536Z,18.33
2022-12-08T15:58:55.331Z,16.63
2022-12-08T16:01:24.014Z,18.43
2022-12-08T16:07:19.712Z,16.63
2022-12-08T16:09:33.207Z,18.03
2022-12-08T16:12:18.771Z,16.23
2022-12-08T16:15:48.672Z,18.77
2022-12-08T16:17:35.551Z,15.60
2022-12-08T16:20:04.908Z,22.97
2022-12-08T16:25:24.122Z,19.87
2022-12-08T16:28:17.481Z,17.63
2022-12-08T16:30:42.194Z,18.17
2022-12-08T16:33:10.723Z,18.47
2022-12-08T16:35:38.408Z,9.90
2022-12-08T16:38:06.233Z,18.87
2022-12-08T16:40:57.301Z,14.53
2022-12-08T16:43:24.536Z,17.07
2022-12-08T16:45:52.893Z,14.33
2022-12-08T16:48:20.730Z,20.43
2022-12-08T16:50:48.601Z,18.23
2022-12-08T16:53:16.257Z,15.27
2022-12-08T16:55:48.347Z,14.50
2022-12-08T16:58:16.626Z,17.90
2022-12-08T17:00:44.512Z,15.43
2022-12-08T17:03:13.903Z,14.33
2022-12-08T17:05:42.110Z,18.57
2022-12-08T17:08:10.392Z,16.20
2022-12-08T17:10:39.676Z,15.53
2022-12-08T17:13:09.084Z,13.60
2022-12-08T17:15:36.790Z,14.57
2022-12-08T17:18:04.979Z,17.73
2022-12-08T17:20:34.177Z,18.93
2022-12-08T17:23:01.967Z,19.17
2022-12-08T17:25:30.149Z,19.10
2022-12-08T17:27:58.445Z,20.37
2022-12-08T17:30:27.836Z,18.20
2022-12-08T17:32:55.605Z,14.83
2022-12-08T17:35:24.137Z,13.27
2022-12-08T17:37:51.839Z,12.50
2022-12-08T17:40:19.735Z,14.27
2022-12-08T17:42:48.095Z,14.37
2022-12-08T17:45:15.885Z,15.07
2022-12-08T17:47:45.047Z,12.03
2022-12-08T17:50:12.992Z,13.73
2022-12-08T17:52:40.782Z,16.10
2022-12-08T17:55:10.234Z,16.07
2022-12-08T17:57:39.144Z,14.47
2022-12-08T18:00:07.952Z,18.33
2022-12-08T18:02:38.433Z,13.40
2022-12-08T18:05:08.798Z,12.37
2022-12-08T18:07:36.720Z,12.67
2022-12-08T18:10:05.486Z,13.37
2022-12-08T18:12:33.704Z,16.63
2022-12-08T18:15:01.396Z,15.23
2022-12-08T18:17:29.145Z,12.53
2022-12-08T18:19:56.827Z,12.03
2022-12-08T18:22:26.807Z,14.57
2022-12-08T18:24:54.996Z,13.63
2022-12-08T18:27:24.912Z,16.57
2022-12-08T18:29:53.269Z,10.30
2022-12-08T18:32:23.686Z,11.57
2022-12-08T18:34:51.697Z,15.20
2022-12-08T18:37:19.859Z,12.70
2022-12-08T18:39:49.137Z,11.70
2022-12-08T18:42:28.635Z,11.07
2022-12-08T18:45:01.735Z,14.90
2022-12-08T18:47:29.939Z,11.73
2022-12-08T18:49:57.816Z,11.73
2022-12-08T18:52:31.588Z,10.30
2022-12-08T18:55:08.573Z,12.00
2022-12-08T18:57:37.488Z,10.13
2022-12-08T19:00:06.112Z,10.27
2022-12-08T19:02:34.527Z,9.27
2022-12-08T19:05:02.573Z,12.80
2022-12-08T19:07:30.439Z,10.87
2022-12-08T19:09:59.338Z,4.07
2022-12-08T19:12:29.052Z,10.37
2022-12-08T19:14:56.748Z,12.80
2022-12-08T19:17:26.017Z,13.40
2022-12-08T19:19:53.980Z,14.13
2022-12-08T19:22:22.069Z,13.93
2022-12-08T19:24:50.216Z,17.23
2022-12-08T19:27:18.708Z,13.17
2022-12-08T19:29:48.596Z,11.60
2022-12-08T19:32:16.373Z,13.00
2022-12-08T19:34:44.452Z,13.87
2022-12-08T19:37:13.385Z,12.63
2022-12-08T19:39:58.901Z,15.30
2022-12-08T19:42:44.771Z,13.40
2022-12-08T19:45:15.428Z,13.63
2022-12-08T19:47:43.863Z,14.20
2022-12-08T19:50:30.063Z,12.03
2022-12-08T19:53:07.270Z,11.67
2022-12-08T19:55:35.267Z,13.67
2022-12-08T19:58:03.289Z,13.93
2022-12-08T20:00:32.932Z,16.00
2022-12-08T20:03:01.952Z,14.23
2022-12-08T20:05:31.078Z,11.57
2022-12-08T20:07:59.188Z,13.03
2022-12-08T20:10:29.375Z,11.13
2022-12-08T20:13:18.547Z,10.57
2022-12-08T20:15:47.943Z,10.47
2022-12-08T20:18:16.507Z,11.80
2022-12-08T20:20:45.132Z,11.33
2022-12-08T20:23:13.637Z,11.47
2022-12-08T20:25:42.261Z,10.00
2022-12-08T20:28:10.088Z,9.27
2022-12-08T20:30:39.425Z,10.03
2022-12-08T20:33:08.711Z,10.57
2022-12-08T20:35:37.040Z,13.67
2022-12-08T20:38:04.849Z,14.97
2022-12-08T20:40:33.092Z,9.60
2022-12-08T20:43:02.518Z,11.87
2022-12-08T20:45:30.352Z,12.83
2022-12-08T20:47:58.491Z,15.17
2022-12-08T20:50:29.006Z,13.03
2022-12-08T20:52:57.111Z,14.80
2022-12-08T20:55:25.040Z,18.93
2022-12-08T20:57:53.471Z,16.87
2022-12-08T21:00:23.513Z,15.40
2022-12-08T21:02:56.519Z,18.57
2022-12-08T21:05:25.568Z,16.73
2022-12-08T21:08:02.485Z,17.53
2022-12-08T21:10:30.576Z,16.77
2022-12-08T21:12:58.387Z,15.57
2022-12-08T21:15:26.573Z,17.97
2022-12-08T21:17:56.159Z,16.87
2022-12-08T21:20:24.243Z,20.03
2022-12-08T21:22:52.130Z,17.87
2022-12-08T21:25:21.702Z,17.23
2022-12-08T21:27:50.187Z,17.30
2022-12-08T21:30:18.461Z,16.57
2022-12-08T21:32:46.905Z,14.70
2022-12-08T21:35:15.163Z,16.57
2022-12-08T21:37:43.601Z,16.77
2022-12-08T21:40:12.249Z,17.50
2022-12-08T21:42:46.274Z,16.97
2022-12-08T21:45:15.493Z,14.40
2022-12-08T21:47:43.649Z,16.83
2022-12-08T21:50:12.650Z,16.53
2022-12-08T21:52:41.764Z,15.13
2022-12-08T21:55:10.746Z,16.17
2022-12-08T21:57:39.932Z,14.50
2022-12-08T22:00:14.415Z,14.10
2022-12-08T22:02:42.668Z,14.30
2022-12-08T22:05:11.550Z,15.17
2022-12-08T22:07:40.612Z,11.70
2022-12-08T22:10:10.186Z,14.27
2022-12-08T22:12:38.933Z,16.33
2022-12-08T22:15:09.776Z,16.50
2022-12-08T22:17:39.514Z,11.63
2022-12-08T22:20:08.883Z,18.70
2022-12-08T22:22:37.685Z,17.37
2022-12-08T22:25:06.504Z,14.83
2022-12-08T22:27:35.855Z,14.37
2022-12-08T22:30:06.382Z,16.60
2022-12-08T22:32:34.614Z,17.63
2022-12-08T22:35:05.059Z,19.63
2022-12-08T22:37:33.320Z,16.37
2022-12-08T22:40:01.339Z,14.07
2022-12-08T22:42:29.620Z,15.83
2022-12-08T22:44:57.740Z,15.50
2022-12-08T22:47:25.755Z,17.73
2022-12-08T22:49:53.977Z,13.63
2022-12-08T22:52:23.597Z,17.33
2022-12-08T22:54:51.735Z,17.40
2022-12-08T22:57:19.512Z,14.77
2022-12-08T22:59:47.302Z,16.10
2022-12-08T23:02:15.547Z,15.77
2022-12-08T23:04:43.613Z,16.20
2022-12-08T23:07:12.123Z,15.87
2022-12-08T23:09:41.575Z,20.90
2022-12-08T23:12:09.501Z,16.53
2022-12-08T23:14:37.368Z,16.83
2022-12-08T23:17:06.835Z,19.07
2022-12-08T23:19:36.597Z,16.47
2022-12-08T23:22:04.507Z,19.00
2022-12-08T23:24:32.508Z,16.47
2022-12-08T23:27:01.697Z,19.07
2022-12-08T23:29:29.785Z,20.80
2022-12-08T23:31:59.005Z,17.17
2022-12-08T23:34:26.762Z,19.30
2022-12-08T23:36:55.665Z,19.73
2022-12-08T23:39:24.869Z,18.33
2022-12-08T23:41:53.755Z,20.10
2022-12-08T23:44:23.410Z,22.77
2022-12-08T23:46:52.840Z,19.43
2022-12-08T23:49:21.578Z,16.50
2022-12-08T23:51:49.602Z,16.13
2022-12-08T23:54:17.533Z,20.47
2022-12-08T23:56:45.253Z,17.73
2022-12-08T23:59:13.137Z,18.47
